createdAt,value
2022-08-19T00:00:38.407Z,4.88
2022-08-19T00:03:12.382Z,3.65
2022-08-19T00:05:46.394Z,3.78
2022-08-19T00:08:12.948Z,3.35
2022-08-19T00:10:45.405Z,3.40
2022-08-19T00:13:11.980Z,2.55
2022-08-19T00:15:46.432Z,2.60
2022-08-19T00:18:12.830Z,2.70
2022-08-19T00:20:47.395Z,3.08
2022-08-19T00:23:20.399Z,2.87
2022-08-19T00:25:48.641Z,3.60
2022-08-19T00:28:28.379Z,2.80
2022-08-19T00:30:54.785Z,3.65
2022-08-19T00:33:27.390Z,3.67
2022-08-19T00:35:57.192Z,3.33
2022-08-19T00:38:35.091Z,3.28
2022-08-19T00:41:14.382Z,1.80
2022-08-19T00:43:42.075Z,1.65
2022-08-19T00:46:16.392Z,3.08
2022-08-19T00:48:42.819Z,2.90
2022-08-19T00:51:16.394Z,2.97
2022-08-19T00:53:46.610Z,1.75
2022-08-19T00:56:13.048Z,2.08
2022-08-19T00:58:48.377Z,3.67
2022-08-19T01:01:15.146Z,3.60
2022-08-19T01:03:57.077Z,3.97
2022-08-19T01:06:32.382Z,3.83
2022-08-19T01:09:07.401Z,3.03
2022-08-19T01:11:44.567Z,2.40
2022-08-19T01:14:18.366Z,2.80
2022-08-19T01:16:54.604Z,2.50
2022-08-19T01:19:31.961Z,3.35
2022-08-19T01:23:02.395Z,3.10
2022-08-19T01:25:40.427Z,2.42
2022-08-19T01:28:14.397Z,2.50
2022-08-19T01:30:51.188Z,2.75
2022-08-19T01:33:25.442Z,2.35
2022-08-19T01:35:52.388Z,2.33
2022-08-19T01:38:35.383Z,2.10
2022-08-19T01:41:18.584Z,1.90
2022-08-19T01:44:13.389Z,2.10
2022-08-19T01:46:40.382Z,2.63
2022-08-19T01:49:08.856Z,2.50
2022-08-19T01:51:42.376Z,2.53
2022-08-19T01:54:23.300Z,2.00
2022-08-19T01:56:58.644Z,1.85
2022-08-19T01:59:31.364Z,2.13
2022-08-19T02:01:58.270Z,1.55
2022-08-19T02:04:32.376Z,2.20
2022-08-19T02:06:59.133Z,1.33
2022-08-19T02:09:32.393Z,1.20
2022-08-19T02:11:59.335Z,1.10
2022-08-19T02:14:25.778Z,0.57
2022-08-19T02:16:58.374Z,0.70
2022-08-19T02:19:24.966Z,0.40
2022-08-19T02:21:58.374Z,0.52
2022-08-19T02:24:24.920Z,1.02
2022-08-19T02:26:52.116Z,0.60
2022-08-19T02:29:31.367Z,0.73
2022-08-19T02:32:04.360Z,0.50
2022-08-19T02:34:30.806Z,1.08
2022-08-19T02:37:04.003Z,1.10
2022-08-19T02:39:30.614Z,0.90
2022-08-19T02:42:04.367Z,0.80
2022-08-19T02:44:31.971Z,1.20
2022-08-19T02:47:05.359Z,1.15
2022-08-19T02:49:34.848Z,1.52
2022-08-19T02:52:08.358Z,1.75
2022-08-19T02:54:35.312Z,1.58
2022-08-19T02:57:08.366Z,1.43
2022-08-19T02:59:35.026Z,1.33
2022-08-19T03:02:01.445Z,1.10
2022-08-19T03:04:34.360Z,1.20
2022-08-19T03:07:10.725Z,1.20
2022-08-19T03:09:46.366Z,1.10
2022-08-19T03:12:12.871Z,0.90
2022-08-19T03:14:46.376Z,0.80
2022-08-19T03:17:13.561Z,1.00
2022-08-19T03:19:40.761Z,2.33
2022-08-19T03:22:14.355Z,0.80
2022-08-19T03:24:48.360Z,0.93
2022-08-19T03:27:15.112Z,1.02
2022-08-19T03:29:54.359Z,1.20
2022-08-19T03:32:33.095Z,1.23
2022-08-19T03:35:00.100Z,0.80
2022-08-19T03:37:34.351Z,0.90
2022-08-19T03:40:00.768Z,1.23
2022-08-19T03:42:48.865Z,1.55
2022-08-19T03:45:28.360Z,1.70
2022-08-19T03:47:55.889Z,1.60
2022-08-19T03:50:22.389Z,1.30
2022-08-19T03:52:58.355Z,1.30
2022-08-19T03:55:24.855Z,1.30
2022-08-19T03:58:04.422Z,1.70
2022-08-19T04:00:30.804Z,2.53
2022-08-19T04:03:04.358Z,1.83
2022-08-19T04:05:30.753Z,2.88
2022-08-19T04:08:09.595Z,2.95
2022-08-19T04:10:39.123Z,2.75
2022-08-19T04:13:14.360Z,2.67
2022-08-19T04:15:45.880Z,3.55
2022-08-19T04:18:18.396Z,3.92
2022-08-19T04:20:46.735Z,3.80
2022-08-19T04:23:14.807Z,4.47
2022-08-19T04:25:52.376Z,4.20
2022-08-19T04:28:34.331Z,4.47
2022-08-19T04:31:00.718Z,4.25
2022-08-19T04:33:34.336Z,3.85
2022-08-19T04:36:00.907Z,4.15
2022-08-19T04:38:34.348Z,4.43
2022-08-19T04:41:19.375Z,4.20
2022-08-19T04:43:56.371Z,4.25
2022-08-19T04:46:39.456Z,4.55
2022-08-19T04:49:13.061Z,4.53
2022-08-19T04:51:50.365Z,4.53
2022-08-19T04:54:30.972Z,4.63
2022-08-19T04:57:14.361Z,4.75
2022-08-19T04:59:40.918Z,5.25
2022-08-19T05:02:09.504Z,5.35
2022-08-19T05:04:46.338Z,4.47
2022-08-19T05:07:20.323Z,4.75
2022-08-19T05:09:57.925Z,4.95
2022-08-19T05:12:32.425Z,4.80
2022-08-19T05:14:59.296Z,5.75
2022-08-19T05:17:29.451Z,4.80
2022-08-19T05:20:24.340Z,3.80
2022-08-19T05:22:50.904Z,4.28
2022-08-19T05:25:27.350Z,3.92
2022-08-19T05:28:00.365Z,4.53
2022-08-19T05:30:46.157Z,4.10
2022-08-19T05:33:20.339Z,3.95
2022-08-19T05:35:47.106Z,4.45
2022-08-19T05:38:20.337Z,4.32
2022-08-19T05:40:47.991Z,4.82
2022-08-19T05:43:16.646Z,4.37
2022-08-19T05:45:50.335Z,4.60
2022-08-19T05:48:21.444Z,5.20
2022-08-19T05:50:58.329Z,5.82
2022-08-19T05:53:32.337Z,4.82
2022-08-19T05:56:06.382Z,5.23
2022-08-19T05:58:33.801Z,6.55
2022-08-19T06:01:11.344Z,6.63
2022-08-19T06:03:38.415Z,6.07
2022-08-19T06:06:13.338Z,7.22
2022-08-19T06:08:40.234Z,7.30
2022-08-19T06:11:49.017Z,7.55
2022-08-19T06:14:20.326Z,8.93
2022-08-19T06:17:06.645Z,9.80
2022-08-19T06:19:40.717Z,10.88
2022-08-19T06:22:08.248Z,13.40
2022-08-19T06:24:34.842Z,14.45
2022-08-19T06:27:08.322Z,15.82
2022-08-19T06:29:48.331Z,16.00
2022-08-19T06:32:17.451Z,16.98
2022-08-19T06:34:50.332Z,16.00
2022-08-19T06:37:17.026Z,16.50
2022-08-19T06:39:45.333Z,16.15
2022-08-19T06:42:21.654Z,16.65
2022-08-19T06:44:53.699Z,16.27
2022-08-19T06:47:29.052Z,17.87
2022-08-19T06:50:02.922Z,19.10
2022-08-19T06:52:41.327Z,20.23
2022-08-19T06:55:08.264Z,18.83
2022-08-19T06:57:35.265Z,20.73
2022-08-19T07:00:12.265Z,20.47
2022-08-19T07:02:39.351Z,21.23
2022-08-19T07:05:15.519Z,19.83
2022-08-19T07:07:44.876Z,20.42
2022-08-19T07:10:20.335Z,20.13
2022-08-19T07:12:49.025Z,20.67
2022-08-19T07:15:23.395Z,20.85
2022-08-19T07:17:57.516Z,23.02
2022-08-19T07:20:28.483Z,22.08
2022-08-19T07:22:55.575Z,21.50
2022-08-19T07:25:31.943Z,22.40
2022-08-19T07:28:00.019Z,23.65
2022-08-19T07:30:34.525Z,23.00
2022-08-19T07:33:03.544Z,23.33
2022-08-19T07:35:39.324Z,24.73
2022-08-19T07:38:05.752Z,22.10
2022-08-19T07:40:32.187Z,24.08
2022-08-19T07:43:05.330Z,23.00
2022-08-19T07:45:39.325Z,22.13
2022-08-19T07:48:13.369Z,23.20
2022-08-19T07:50:47.307Z,23.40
2022-08-19T07:53:14.051Z,22.73
2022-08-19T07:55:54.315Z,22.58
2022-08-19T07:58:29.326Z,23.20
2022-08-19T08:00:55.850Z,23.58
2022-08-19T08:03:53.311Z,22.80
2022-08-19T08:06:38.148Z,21.02
2022-08-19T08:09:19.541Z,20.73
2022-08-19T08:11:57.725Z,20.67
2022-08-19T08:14:44.127Z,21.92
2022-08-19T08:17:11.385Z,20.20
2022-08-19T08:19:45.524Z,19.65
2022-08-19T08:22:35.312Z,19.73
2022-08-19T08:25:17.454Z,20.48
2022-08-19T08:27:45.520Z,20.27
2022-08-19T08:30:17.067Z,20.33
2022-08-19T08:32:53.328Z,18.92
2022-08-19T08:35:21.985Z,19.73
2022-08-19T08:37:59.317Z,17.95
2022-08-19T08:40:54.311Z,18.50
2022-08-19T08:43:41.352Z,17.37
2022-08-19T08:46:31.269Z,16.00
2022-08-19T08:49:29.323Z,17.27
2022-08-19T08:52:09.344Z,17.02
2022-08-19T08:54:56.513Z,16.23
2022-08-19T08:57:54.528Z,15.33
2022-08-19T09:00:27.398Z,15.50
2022-08-19T09:03:03.356Z,15.52
2022-08-19T09:06:01.187Z,16.77
2022-08-19T09:08:47.320Z,14.32
2022-08-19T09:11:42.527Z,13.33
2022-08-19T09:14:49.670Z,15.07
2022-08-19T09:17:18.364Z,16.08
2022-08-19T09:20:03.317Z,14.38
2022-08-19T09:22:29.930Z,12.25
2022-08-19T09:25:03.363Z,12.50
2022-08-19T09:27:41.979Z,12.50
2022-08-19T09:30:29.362Z,12.48
2022-08-19T09:32:57.816Z,11.98
2022-08-19T09:35:53.126Z,12.25
2022-08-19T09:38:21.341Z,11.67
2022-08-19T09:40:55.323Z,12.48
2022-08-19T09:43:33.152Z,10.98
2022-08-19T09:46:08.340Z,12.32
2022-08-19T09:48:34.778Z,12.27
2022-08-19T09:51:18.319Z,12.00
2022-08-19T09:54:04.912Z,11.60
2022-08-19T09:56:39.470Z,11.82
2022-08-19T09:59:17.354Z,11.38
2022-08-19T10:01:43.999Z,11.52
2022-08-19T10:04:19.735Z,12.10
2022-08-19T10:06:55.490Z,10.85
2022-08-19T10:09:26.022Z,10.32
2022-08-19T10:12:11.316Z,9.60
2022-08-19T10:14:40.134Z,8.75
2022-08-19T10:17:17.642Z,8.53
2022-08-19T10:19:55.502Z,9.05
2022-08-19T10:22:23.442Z,9.48
2022-08-19T10:24:53.039Z,9.25
2022-08-19T10:27:33.516Z,10.43
2022-08-19T10:30:02.233Z,9.90
2022-08-19T10:32:37.491Z,10.43
2022-08-19T10:35:08.882Z,10.30
2022-08-19T10:37:56.846Z,11.13
2022-08-19T10:40:23.617Z,12.20
2022-08-19T10:42:57.328Z,11.80
2022-08-19T10:45:26.892Z,10.48
2022-08-19T10:48:01.307Z,10.52
2022-08-19T10:50:47.952Z,11.18
2022-08-19T10:53:21.503Z,11.30
2022-08-19T10:56:16.418Z,11.73
2022-08-19T10:58:56.358Z,11.15
2022-08-19T11:01:23.036Z,12.20
2022-08-19T11:03:57.307Z,12.27
2022-08-19T11:06:25.897Z,11.95
2022-08-19T11:09:00.323Z,11.20
2022-08-19T11:11:27.714Z,12.75
2022-08-19T11:13:54.683Z,11.82
2022-08-19T11:16:30.350Z,11.38
2022-08-19T11:18:59.394Z,12.48
2022-08-19T11:21:39.323Z,13.10
2022-08-19T11:24:16.215Z,12.32
2022-08-19T11:26:51.360Z,12.93
2022-08-19T11:29:21.137Z,13.80
2022-08-19T11:31:57.484Z,13.05
2022-08-19T11:34:28.498Z,11.80
2022-08-19T11:37:07.310Z,12.25
2022-08-19T11:39:36.444Z,12.07
2022-08-19T11:42:31.500Z,14.43
2022-08-19T11:44:58.053Z,16.48
2022-08-19T11:47:24.955Z,14.53
2022-08-19T11:49:58.319Z,13.77
2022-08-19T11:52:24.884Z,16.10
2022-08-19T11:54:58.306Z,16.45
2022-08-19T11:57:24.718Z,16.90
2022-08-19T11:59:54.076Z,14.70
2022-08-19T12:02:27.309Z,14.35
2022-08-19T12:04:54.760Z,14.77
2022-08-19T12:07:29.523Z,12.77
2022-08-19T12:10:03.563Z,12.07
2022-08-19T12:12:37.296Z,13.87
2022-08-19T12:15:03.991Z,12.32
2022-08-19T12:17:39.314Z,12.00
2022-08-19T12:20:07.631Z,14.20
2022-08-19T12:22:40.508Z,13.07
2022-08-19T12:25:15.501Z,12.43
2022-08-19T12:27:46.838Z,13.13
2022-08-19T12:30:23.339Z,13.43
2022-08-19T12:32:49.811Z,14.52
2022-08-19T12:35:22.347Z,14.70
2022-08-19T12:37:56.662Z,13.37
2022-08-19T12:40:30.303Z,14.38
2022-08-19T12:42:56.792Z,12.82
2022-08-19T12:45:23.627Z,13.77
2022-08-19T12:47:57.523Z,12.57
2022-08-19T12:50:24.073Z,10.63
2022-08-19T12:52:57.452Z,8.48
2022-08-19T12:55:30.335Z,7.63
2022-08-19T12:58:04.271Z,7.97
2022-08-19T13:00:41.393Z,8.77
2022-08-19T13:03:07.844Z,8.67
2022-08-19T13:05:41.449Z,8.63
2022-08-19T13:08:14.335Z,8.25
2022-08-19T13:10:40.983Z,7.28
2022-08-19T13:13:17.506Z,8.00
2022-08-19T13:15:46.025Z,7.57
2022-08-19T13:18:21.520Z,8.85
2022-08-19T13:20:52.698Z,10.65
2022-08-19T13:23:27.495Z,8.85
2022-08-19T13:25:58.907Z,8.20
2022-08-19T13:28:33.304Z,9.83
2022-08-19T13:31:18.133Z,10.77
2022-08-19T13:33:53.298Z,11.68
2022-08-19T13:36:19.690Z,12.38
2022-08-19T13:38:53.332Z,13.60
2022-08-19T13:41:20.237Z,13.57
2022-08-19T13:43:55.340Z,14.68
2022-08-19T13:46:21.963Z,13.98
2022-08-19T13:48:49.298Z,14.65
2022-08-19T13:51:25.324Z,14.73
2022-08-19T13:53:51.708Z,13.83
2022-08-19T13:56:24.200Z,13.48
2022-08-19T13:58:59.524Z,13.18
2022-08-19T14:01:27.587Z,12.52
2022-08-19T14:04:01.532Z,13.43
2022-08-19T14:06:30.548Z,12.67
2022-08-19T14:09:03.308Z,13.02
2022-08-19T14:11:30.527Z,12.60
2022-08-19T14:13:56.969Z,12.82
2022-08-19T14:16:31.336Z,13.70
2022-08-19T14:18:58.028Z,14.37
2022-08-19T14:21:33.287Z,13.38
2022-08-19T14:23:59.728Z,13.10
2022-08-19T14:26:33.757Z,13.10
2022-08-19T14:29:00.727Z,12.60
2022-08-19T14:32:05.300Z,11.40
2022-08-19T14:34:39.302Z,9.13
2022-08-19T14:37:14.341Z,8.30
2022-08-19T14:39:52.559Z,8.90
2022-08-19T14:42:19.195Z,9.43
2022-08-19T14:44:53.494Z,9.27
2022-08-19T14:47:27.300Z,8.65
2022-08-19T14:50:05.012Z,8.43
2022-08-19T14:52:38.495Z,8.60
2022-08-19T14:55:11.663Z,7.50
2022-08-19T14:57:45.327Z,9.20
2022-08-19T15:00:19.642Z,6.88
2022-08-19T15:02:53.478Z,5.60
2022-08-19T15:05:20.105Z,5.75
2022-08-19T15:07:46.694Z,5.97
2022-08-19T15:10:23.333Z,6.53
2022-08-19T15:12:51.843Z,6.00
2022-08-19T15:15:25.323Z,5.85
2022-08-19T15:17:51.798Z,5.35
2022-08-19T15:20:26.302Z,5.50
2022-08-19T15:22:59.511Z,5.57
2022-08-19T15:25:25.956Z,5.57
2022-08-19T15:27:53.844Z,5.35
2022-08-19T15:30:31.318Z,5.10
2022-08-19T15:32:58.828Z,5.10
2022-08-19T15:35:33.338Z,4.90
2022-08-19T15:37:59.798Z,4.97
2022-08-19T15:40:34.281Z,4.00
2022-08-19T15:43:01.400Z,3.97
2022-08-19T15:45:39.305Z,4.20
2022-08-19T15:48:06.246Z,3.80
2022-08-19T15:50:39.292Z,3.92
2022-08-19T15:53:08.575Z,3.80
2022-08-19T15:55:50.308Z,4.35
2022-08-19T15:58:43.308Z,3.63
2022-08-19T16:01:28.246Z,3.83
2022-08-19T16:04:23.528Z,3.58
2022-08-19T16:06:56.620Z,3.42
2022-08-19T16:09:35.347Z,3.85
2022-08-19T16:12:05.023Z,3.40
2022-08-19T16:14:42.486Z,2.90
2022-08-19T16:17:11.693Z,2.85
2022-08-19T16:19:38.616Z,3.60
2022-08-19T16:22:12.318Z,3.53
2022-08-19T16:24:38.960Z,3.85
2022-08-19T16:27:13.451Z,3.60
2022-08-19T16:29:53.306Z,3.63
2022-08-19T16:32:27.292Z,4.22
2022-08-19T16:35:05.988Z,3.50
2022-08-19T16:37:33.846Z,4.18
2022-08-19T16:40:06.632Z,3.80
2022-08-19T16:42:41.288Z,3.60
2022-08-19T16:45:08.965Z,3.70
2022-08-19T16:47:43.441Z,3.97
2022-08-19T16:50:22.145Z,3.33
2022-08-19T16:52:58.526Z,3.80
2022-08-19T16:55:31.306Z,3.70
